sensor_id;sensor_type;location;lat;lon;timestamp;pressure;altitude;pressure_sealevel;temperature;humidity
57094;BME280;42970;50.996;3.706;2023-02-11T00:02:12;77516.44;;;-146.65;100.00
57094;BME280;42970;50.996;3.706;2023-02-11T00:04:37;77518.47;;;-146.65;100.00
57094;BME280;42970;50.996;3.706;2023-02-11T00:07:02;77542.69;;;-146.65;100.00
57094;BME280;42970;50.996;3.706;2023-02-11T00:09:28;77542.69;;;-146.65;100.00
57094;BME280;42970;50.996;3.706;2023-02-11T00:11:53;77530.56;;;-146.65;100.00
57094;BME280;42970;50.996;3.706;2023-02-11T00:14:18;77534.63;;;-146.65;100.00
57094;BME280;42970;50.996;3.706;2023-02-11T00:16:43;77526.53;;;-146.65;100.00
57094;BME280;42970;50.996;3.706;2023-02-11T00:19:09;77516.44;;;-146.65;100.00
57094;BME280;42970;50.996;3.706;2023-02-11T00:21:34;77514.44;;;-146.65;100.00
57094;BME280;42970;50.996;3.706;2023-02-11T00:23:59;77508.38;;;-146.65;100.00
57094;BME280;42970;50.996;3.706;2023-02-11T00:26:33;77514.44;;;-146.65;100.00
57094;BME280;42970;50.996;3.706;2023-02-11T00:28:59;77514.44;;;-146.65;100.00
57094;BME280;42970;50.996;3.706;2023-02-11T00:31:25;77486.19;;;-146.65;100.00
57094;BME280;42970;50.996;3.706;2023-02-11T00:33:51;77506.34;;;-146.65;100.00
57094;BME280;42970;50.996;3.706;2023-02-11T00:36:18;77504.34;;;-146.65;100.00
57094;BME280;42970;50.996;3.706;2023-02-11T00:38:43;77522.50;;;-146.65;100.00
57094;BME280;42970;50.996;3.706;2023-02-11T00:41:09;77508.38;;;-146.65;100.00
57094;BME280;42970;50.996;3.706;2023-02-11T00:43:34;77498.28;;;-146.65;100.00
57094;BME280;42970;50.996;3.706;2023-02-11T00:46:00;77504.34;;;-146.65;100.00
57094;BME280;42970;50.996;3.706;2023-02-11T00:48:25;77496.28;;;-146.65;100.00
57094;BME280;42970;50.996;3.706;2023-02-11T00:50:50;77498.28;;;-146.65;100.00
57094;BME280;42970;50.996;3.706;2023-02-11T00:53:16;77488.19;;;-146.65;100.00
57094;BME280;42970;50.996;3.706;2023-02-11T00:55:41;77500.31;;;-146.65;100.00
57094;BME280;42970;50.996;3.706;2023-02-11T00:58:06;77502.31;;;-146.65;100.00
57094;BME280;42970;50.996;3.706;2023-02-11T01:00:31;77474.06;;;-146.65;100.00
57094;BME280;42970;50.996;3.706;2023-02-11T01:02:57;77476.09;;;-146.65;100.00
57094;BME280;42970;50.996;3.706;2023-02-11T01:05:22;77457.94;;;-146.65;100.00
57094;BME280;42970;50.996;3.706;2023-02-11T01:07:47;77472.06;;;-146.65;100.00
57094;BME280;42970;50.996;3.706;2023-02-11T01:10:13;77459.94;;;-146.65;100.00
57094;BME280;42970;50.996;3.706;2023-02-11T01:12:38;77470.03;;;-146.65;100.00
57094;BME280;42970;50.996;3.706;2023-02-11T01:15:05;77474.06;;;-146.65;100.00
57094;BME280;42970;50.996;3.706;2023-02-11T01:17:32;77486.19;;;-146.65;100.00
57094;BME280;42970;50.996;3.706;2023-02-11T01:19:57;77478.09;;;-146.65;100.00
57094;BME280;42970;50.996;3.706;2023-02-11T01:22:22;77470.03;;;-146.65;100.00
57094;BME280;42970;50.996;3.706;2023-02-11T01:24:47;77476.09;;;-146.65;100.00
57094;BME280;42970;50.996;3.706;2023-02-11T01:27:13;77470.03;;;-146.65;100.00
57094;BME280;42970;50.996;3.706;2023-02-11T01:29:38;77486.19;;;-146.65;100.00
57094;BME280;42970;50.996;3.706;2023-02-11T01:32:03;77478.09;;;-146.65;100.00
57094;BME280;42970;50.996;3.706;2023-02-11T01:34:29;77457.94;;;-146.65;100.00
57094;BME280;42970;50.996;3.706;2023-02-11T01:36:57;77468.00;;;-146.65;100.00
57094;BME280;42970;50.996;3.706;2023-02-11T01:39:23;77476.09;;;-146.65;100.00
57094;BME280;42970;50.996;3.706;2023-02-11T01:41:49;77474.06;;;-146.65;100.00
57094;BME280;42970;50.996;3.706;2023-02-11T01:44:24;77488.19;;;-146.65;100.00
57094;BME280;42970;50.996;3.706;2023-02-11T01:46:50;77482.13;;;-146.65;100.00
57094;BME280;42970;50.996;3.706;2023-02-11T01:49:20;77478.09;;;-146.65;100.00
57094;BME280;42970;50.996;3.706;2023-02-11T01:52:06;77480.13;;;-146.65;100.00
57094;BME280;42970;50.996;3.706;2023-02-11T01:54:34;77486.19;;;-146.65;100.00
57094;BME280;42970;50.996;3.706;2023-02-11T01:57:20;77486.19;;;-146.65;100.00
57094;BME280;42970;50.996;3.706;2023-02-11T01:59:48;77494.25;;;-146.65;100.00
57094;BME280;42970;50.996;3.706;2023-02-11T02:02:16;77482.13;;;-146.65;100.00
57094;BME280;42970;50.996;3.706;2023-02-11T02:04:54;77490.22;;;-146.65;100.00
57094;BME280;42970;50.996;3.706;2023-02-11T02:07:29;77488.19;;;-146.65;100.00
57094;BME280;42970;50.996;3.706;2023-02-11T02:09:58;77478.09;;;-146.65;100.00
57094;BME280;42970;50.996;3.706;2023-02-11T02:12:24;77480.13;;;-146.65;100.00
57094;BME280;42970;50.996;3.706;2023-02-11T02:14:49;77484.16;;;-146.65;100.00
57094;BME280;42970;50.996;3.706;2023-02-11T02:17:25;77468.00;;;-146.65;100.00
57094;BME280;42970;50.996;3.706;2023-02-11T02:20:01;77470.03;;;-146.65;100.00
57094;BME280;42970;50.996;3.706;2023-02-11T02:25:01;77451.88;;;-146.65;100.00
57094;BME280;42970;50.996;3.706;2023-02-11T02:35:23;77425.63;;;-146.65;100.00
57094;BME280;42970;50.996;3.706;2023-02-11T02:40:22;77425.63;;;-146.65;100.00
57094;BME280;42970;50.996;3.706;2023-02-11T02:42:49;77413.53;;;-146.65;100.00
57094;BME280;42970;50.996;3.706;2023-02-11T02:45:15;77413.53;;;-146.65;100.00
57094;BME280;42970;50.996;3.706;2023-02-11T02:47:40;77413.53;;;-146.65;100.00
57094;BME280;42970;50.996;3.706;2023-02-11T02:50:06;77411.50;;;-146.65;100.00
57094;BME280;42970;50.996;3.706;2023-02-11T03:03:14;77399.41;;;-146.65;100.00
57094;BME280;42970;50.996;3.706;2023-02-11T03:08:37;77393.34;;;-146.65;100.00
57094;BME280;42970;50.996;3.706;2023-02-11T03:11:05;77395.38;;;-146.65;100.00
57094;BME280;42970;50.996;3.706;2023-02-11T03:13:33;77387.28;;;-146.65;100.00
57094;BME280;42970;50.996;3.706;2023-02-11T03:16:11;77391.34;;;-146.65;100.00
57094;BME280;42970;50.996;3.706;2023-02-11T03:18:38;77387.28;;;-146.65;100.00
57094;BME280;42970;50.996;3.706;2023-02-11T03:21:05;77387.28;;;-146.65;100.00
57094;BME280;42970;50.996;3.706;2023-02-11T03:23:34;77389.31;;;-146.65;100.00
57094;BME280;42970;50.996;3.706;2023-02-11T03:26:07;77395.38;;;-146.65;100.00
57094;BME280;42970;50.996;3.706;2023-02-11T03:31:16;77389.31;;;-146.65;100.00
57094;BME280;42970;50.996;3.706;2023-02-11T03:33:49;77397.38;;;-146.65;100.00
57094;BME280;42970;50.996;3.706;2023-02-11T03:36:23;77399.41;;;-146.65;100.00
57094;BME280;42970;50.996;3.706;2023-02-11T03:38:52;77397.38;;;-146.65;100.00
57094;BME280;42970;50.996;3.706;2023-02-11T03:41:20;77397.38;;;-146.65;100.00
57094;BME280;42970;50.996;3.706;2023-02-11T03:43:54;77405.47;;;-146.65;100.00
57094;BME280;42970;50.996;3.706;2023-02-11T03:46:22;77409.50;;;-146.65;100.00
57094;BME280;42970;50.996;3.706;2023-02-11T03:48:49;77409.50;;;-146.65;100.00
57094;BME280;42970;50.996;3.706;2023-02-11T03:51:15;77393.34;;;-146.65;100.00
57094;BME280;42970;50.996;3.706;2023-02-11T03:53:42;77393.34;;;-146.65;100.00
57094;BME280;42970;50.996;3.706;2023-02-11T03:56:09;77377.22;;;-146.65;100.00
57094;BME280;42970;50.996;3.706;2023-02-11T03:58:35;77361.06;;;-146.65;100.00
57094;BME280;42970;50.996;3.706;2023-02-11T04:01:00;77391.34;;;-146.65;100.00
57094;BME280;42970;50.996;3.706;2023-02-11T04:03:27;77393.34;;;-146.65;100.00
57094;BME280;42970;50.996;3.706;2023-02-11T04:05:52;77389.31;;;-146.65;100.00
57094;BME280;42970;50.996;3.706;2023-02-11T04:08:18;77381.25;;;-146.65;100.00
57094;BME280;42970;50.996;3.706;2023-02-11T04:10:43;77381.25;;;-146.65;100.00
57094;BME280;42970;50.996;3.706;2023-02-11T04:13:08;77387.28;;;-146.65;100.00
57094;BME280;42970;50.996;3.706;2023-02-11T04:15:34;77401.41;;;-146.65;100.00
57094;BME280;42970;50.996;3.706;2023-02-11T04:17:59;77401.41;;;-146.65;100.00
57094;BME280;42970;50.996;3.706;2023-02-11T04:20:25;77411.50;;;-146.65;100.00
57094;BME280;42970;50.996;3.706;2023-02-11T04:22:51;77409.50;;;-146.65;100.00
57094;BME280;42970;50.996;3.706;2023-02-11T04:25:16;77401.41;;;-146.65;100.00
57094;BME280;42970;50.996;3.706;2023-02-11T04:27:41;77377.22;;;-146.65;100.00
57094;BME280;42970;50.996;3.706;2023-02-11T04:30:07;77383.25;;;-146.65;100.00
57094;BME280;42970;50.996;3.706;2023-02-11T04:32:32;77393.34;;;-146.65;100.00
57094;BME280;42970;50.996;3.706;2023-02-11T04:34:57;77383.25;;;-146.65;100.00
57094;BME280;42970;50.996;3.706;2023-02-11T04:37:23;77401.41;;;-146.65;100.00
57094;BME280;42970;50.996;3.706;2023-02-11T04:39:48;77375.19;;;-146.65;100.00
57094;BME280;42970;50.996;3.706;2023-02-11T04:42:13;77373.16;;;-146.65;100.00
57094;BME280;42970;50.996;3.706;2023-02-11T04:44:39;77389.31;;;-146.65;100.00
57094;BME280;42970;50.996;3.706;2023-02-11T04:47:04;77385.28;;;-146.65;100.00
57094;BME280;42970;50.996;3.706;2023-02-11T04:49:29;77393.34;;;-146.65;100.00
57094;BME280;42970;50.996;3.706;2023-02-11T04:51:55;77399.41;;;-146.65;100.00
57094;BME280;42970;50.996;3.706;2023-02-11T04:54:20;77407.47;;;-146.65;100.00
57094;BME280;42970;50.996;3.706;2023-02-11T04:56:46;77405.47;;;-146.65;100.00
57094;BME280;42970;50.996;3.706;2023-02-11T04:59:11;77397.38;;;-146.65;100.00
57094;BME280;42970;50.996;3.706;2023-02-11T05:01:37;77387.28;;;-146.65;100.00
57094;BME280;42970;50.996;3.706;2023-02-11T05:04:03;77399.41;;;-146.65;100.00
57094;BME280;42970;50.996;3.706;2023-02-11T05:06:28;77399.41;;;-146.65;100.00
57094;BME280;42970;50.996;3.706;2023-02-11T05:08:53;77391.34;;;-146.65;100.00
57094;BME280;42970;50.996;3.706;2023-02-11T05:11:20;77381.25;;;-146.65;100.00
57094;BME280;42970;50.996;3.706;2023-02-11T05:13:46;77379.22;;;-146.65;100.00
57094;BME280;42970;50.996;3.706;2023-02-11T05:16:11;77369.13;;;-146.65;100.00
57094;BME280;42970;50.996;3.706;2023-02-11T05:18:37;77363.09;;;-146.65;100.00
57094;BME280;42970;50.996;3.706;2023-02-11T05:21:06;77377.22;;;-146.65;100.00
57094;BME280;42970;50.996;3.706;2023-02-11T05:23:32;77377.22;;;-146.65;100.00
57094;BME280;42970;50.996;3.706;2023-02-11T05:25:58;77361.06;;;-146.65;100.00
57094;BME280;42970;50.996;3.706;2023-02-11T05:28:23;77357.03;;;-146.65;100.00
57094;BME280;42970;50.996;3.706;2023-02-11T05:30:48;77357.03;;;-146.65;100.00
57094;BME280;42970;50.996;3.706;2023-02-11T05:33:14;77353.00;;;-146.65;100.00
57094;BME280;42970;50.996;3.706;2023-02-11T05:35:39;77357.03;;;-146.65;100.00
57094;BME280;42970;50.996;3.706;2023-02-11T05:38:04;77350.97;;;-146.65;100.00
57094;BME280;42970;50.996;3.706;2023-02-11T05:40:30;77357.03;;;-146.65;100.00
57094;BME280;42970;50.996;3.706;2023-02-11T05:42:55;77357.03;;;-146.65;100.00
57094;BME280;42970;50.996;3.706;2023-02-11T05:45:20;77355.00;;;-146.65;100.00
57094;BME280;42970;50.996;3.706;2023-02-11T05:47:46;77367.13;;;-146.65;100.00
57094;BME280;42970;50.996;3.706;2023-02-11T05:50:11;77361.06;;;-146.65;100.00
57094;BME280;42970;50.996;3.706;2023-02-11T05:52:36;77361.06;;;-146.65;100.00
57094;BME280;42970;50.996;3.706;2023-02-11T05:55:01;77373.16;;;-146.65;100.00
57094;BME280;42970;50.996;3.706;2023-02-11T05:57:27;77355.00;;;-146.65;100.00
57094;BME280;42970;50.996;3.706;2023-02-11T05:59:52;77355.00;;;-146.65;100.00
57094;BME280;42970;50.996;3.706;2023-02-11T06:02:17;77344.91;;;-146.65;100.00
57094;BME280;42970;50.996;3.706;2023-02-11T06:04:43;77340.88;;;-146.65;100.00
57094;BME280;42970;50.996;3.706;2023-02-11T06:07:08;77340.88;;;-146.65;100.00
57094;BME280;42970;50.996;3.706;2023-02-11T06:09:33;77348.94;;;-146.65;100.00
57094;BME280;42970;50.996;3.706;2023-02-11T06:11:59;77338.88;;;-146.65;100.00
57094;BME280;42970;50.996;3.706;2023-02-11T06:14:24;77350.97;;;-146.65;100.00
57094;BME280;42970;50.996;3.706;2023-02-11T06:16:49;77336.84;;;-146.65;100.00
57094;BME280;42970;50.996;3.706;2023-02-11T06:19:15;77336.84;;;-146.65;100.00
57094;BME280;42970;50.996;3.706;2023-02-11T06:21:40;77332.81;;;-146.65;100.00
57094;BME280;42970;50.996;3.706;2023-02-11T06:24:05;77324.75;;;-146.65;100.00
57094;BME280;42970;50.996;3.706;2023-02-11T06:26:31;77324.75;;;-146.65;100.00
57094;BME280;42970;50.996;3.706;2023-02-11T06:28:58;77322.72;;;-146.65;100.00
57094;BME280;42970;50.996;3.706;2023-02-11T06:31:24;77326.75;;;-146.65;100.00
57094;BME280;42970;50.996;3.706;2023-02-11T06:33:49;77332.81;;;-146.65;100.00
57094;BME280;42970;50.996;3.706;2023-02-11T06:36:16;77322.72;;;-146.65;100.00
57094;BME280;42970;50.996;3.706;2023-02-11T06:38:43;77326.75;;;-146.65;100.00
57094;BME280;42970;50.996;3.706;2023-02-11T06:41:09;77340.88;;;-146.65;100.00
57094;BME280;42970;50.996;3.706;2023-02-11T06:43:35;77322.72;;;-146.65;100.00
57094;BME280;42970;50.996;3.706;2023-02-11T06:46:00;77330.78;;;-146.65;100.00
57094;BME280;42970;50.996;3.706;2023-02-11T06:48:25;77330.78;;;-146.65;100.00
57094;BME280;42970;50.996;3.706;2023-02-11T06:50:51;77344.91;;;-146.65;100.00
57094;BME280;42970;50.996;3.706;2023-02-11T06:53:16;77373.16;;;-146.65;100.00
57094;BME280;42970;50.996;3.706;2023-02-11T06:55:41;77385.28;;;-146.65;100.00
57094;BME280;42970;50.996;3.706;2023-02-11T06:58:07;77393.34;;;-146.65;100.00
57094;BME280;42970;50.996;3.706;2023-02-11T07:00:32;77409.50;;;-146.65;100.00
57094;BME280;42970;50.996;3.706;2023-02-11T07:02:57;77431.69;;;-146.65;100.00
57094;BME280;42970;50.996;3.706;2023-02-11T07:05:23;77451.88;;;-146.65;100.00
57094;BME280;42970;50.996;3.706;2023-02-11T07:07:48;77474.06;;;-146.65;100.00
57094;BME280;42970;50.996;3.706;2023-02-11T07:10:14;77484.16;;;-146.65;100.00
57094;BME280;42970;50.996;3.706;2023-02-11T07:12:39;77494.25;;;-146.65;100.00
57094;BME280;42970;50.996;3.706;2023-02-11T07:15:04;77496.28;;;-146.65;100.00
57094;BME280;42970;50.996;3.706;2023-02-11T07:17:30;77500.31;;;-146.65;100.00
57094;BME280;42970;50.996;3.706;2023-02-11T07:19:55;77486.19;;;-146.65;100.00
57094;BME280;42970;50.996;3.706;2023-02-11T07:22:20;77494.25;;;-146.65;100.00
57094;BME280;42970;50.996;3.706;2023-02-11T07:24:46;77476.09;;;-146.65;100.00
57094;BME280;42970;50.996;3.706;2023-02-11T07:27:11;77457.94;;;-146.65;100.00
57094;BME280;42970;50.996;3.706;2023-02-11T07:29:36;77425.63;;;-146.65;100.00
57094;BME280;42970;50.996;3.706;2023-02-11T07:32:01;77407.47;;;-146.65;100.00
57094;BME280;42970;50.996;3.706;2023-02-11T07:34:27;77385.28;;;-146.65;100.00
57094;BME280;42970;50.996;3.706;2023-02-11T07:36:52;77367.13;;;-146.65;100.00
57094;BME280;42970;50.996;3.706;2023-02-11T07:39:17;77361.06;;;-146.65;100.00
57094;BME280;42970;50.996;3.706;2023-02-11T07:41:44;77355.00;;;-146.65;100.00
57094;BME280;42970;50.996;3.706;2023-02-11T07:44:11;77344.91;;;-146.65;100.00
57094;BME280;42970;50.996;3.706;2023-02-11T07:46:37;77340.88;;;-146.65;100.00
57094;BME280;42970;50.996;3.706;2023-02-11T07:49:07;77328.78;;;-146.65;100.00
57094;BME280;42970;50.996;3.706;2023-02-11T07:51:32;77328.78;;;-146.65;100.00
57094;BME280;42970;50.996;3.706;2023-02-11T07:53:58;77324.75;;;-146.65;100.00
57094;BME280;42970;50.996;3.706;2023-02-11T07:56:24;77312.63;;;-146.65;100.00
57094;BME280;42970;50.996;3.706;2023-02-11T07:58:49;77312.63;;;-146.65;100.00
57094;BME280;42970;50.996;3.706;2023-02-11T08:01:19;77304.56;;;-146.65;100.00
57094;BME280;42970;50.996;3.706;2023-02-11T08:03:46;77304.56;;;-146.65;100.00
57094;BME280;42970;50.996;3.706;2023-02-11T08:06:13;77298.50;;;-146.65;100.00
57094;BME280;42970;50.996;3.706;2023-02-11T08:08:39;77290.44;;;-146.65;100.00
57094;BME280;42970;50.996;3.706;2023-02-11T08:13:32;77278.31;;;-146.65;100.00
57094;BME280;42970;50.996;3.706;2023-02-11T08:15:58;77272.28;;;-146.65;100.00
57094;BME280;42970;50.996;3.706;2023-02-11T08:18:23;77272.28;;;-146.65;100.00
57094;BME280;42970;50.996;3.706;2023-02-11T08:20:48;77268.25;;;-146.65;100.00
57094;BME280;42970;50.996;3.706;2023-02-11T08:23:14;77268.25;;;-146.65;100.00
57094;BME280;42970;50.996;3.706;2023-02-11T08:25:39;77258.16;;;-146.65;100.00
57094;BME280;42970;50.996;3.706;2023-02-11T08:28:04;77260.16;;;-146.65;100.00
57094;BME280;42970;50.996;3.706;2023-02-11T08:30:30;77254.13;;;-146.65;100.00
57094;BME280;42970;50.996;3.706;2023-02-11T08:32:55;77250.06;;;-146.65;100.00
57094;BME280;42970;50.996;3.706;2023-02-11T08:35:21;77244.03;;;-146.65;100.00
57094;BME280;42970;50.996;3.706;2023-02-11T08:37:46;77229.91;;;-146.65;100.00
57094;BME280;42970;50.996;3.706;2023-02-11T08:40:12;77240.00;;;-146.65;100.00
57094;BME280;42970;50.996;3.706;2023-02-11T08:42:38;77240.00;;;-146.65;100.00
57094;BME280;42970;50.996;3.706;2023-02-11T08:45:03;77229.91;;;-146.65;100.00
57094;BME280;42970;50.996;3.706;2023-02-11T08:47:29;77227.88;;;-146.65;100.00
57094;BME280;42970;50.996;3.706;2023-02-11T08:49:55;77219.81;;;-146.65;100.00
57094;BME280;42970;50.996;3.706;2023-02-11T08:52:20;77215.78;;;-146.65;100.00
57094;BME280;42970;50.996;3.706;2023-02-11T08:54:46;77215.78;;;-146.65;100.00
57094;BME280;42970;50.996;3.706;2023-02-11T08:57:11;77215.78;;;-146.65;100.00
57094;BME280;42970;50.996;3.706;2023-02-11T08:59:37;77211.75;;;-146.65;100.00
57094;BME280;42970;50.996;3.706;2023-02-11T09:02:04;77205.69;;;-146.65;100.00
57094;BME280;42970;50.996;3.706;2023-02-11T09:04:30;77197.59;;;-146.65;100.00
57094;BME280;42970;50.996;3.706;2023-02-11T09:06:55;77199.63;;;-146.65;100.00
57094;BME280;42970;50.996;3.706;2023-02-11T09:09:21;77205.69;;;-146.65;100.00
57094;BME280;42970;50.996;3.706;2023-02-11T09:11:46;77199.63;;;-146.65;100.00
57094;BME280;42970;50.996;3.706;2023-02-11T09:14:16;77207.69;;;-146.65;100.00
57094;BME280;42970;50.996;3.706;2023-02-11T09:16:42;77215.78;;;-146.65;100.00
57094;BME280;42970;50.996;3.706;2023-02-11T09:19:08;77207.69;;;-146.65;100.00
57094;BME280;42970;50.996;3.706;2023-02-11T09:21:33;77211.75;;;-146.65;100.00
57094;BME280;42970;50.996;3.706;2023-02-11T09:23:59;77199.63;;;-146.65;100.00
57094;BME280;42970;50.996;3.706;2023-02-11T09:26:25;77199.63;;;-146.65;100.00
57094;BME280;42970;50.996;3.706;2023-02-11T09:28:51;77191.56;;;-146.65;100.00
57094;BME280;42970;50.996;3.706;2023-02-11T09:31:17;77187.53;;;-146.65;100.00
57094;BME280;42970;50.996;3.706;2023-02-11T09:33:44;77183.47;;;-146.65;100.00
57094;BME280;42970;50.996;3.706;2023-02-11T09:36:12;77189.53;;;-146.65;100.00
57094;BME280;42970;50.996;3.706;2023-02-11T09:38:38;77185.50;;;-146.65;100.00
57094;BME280;42970;50.996;3.706;2023-02-11T09:41:03;77191.56;;;-146.65;100.00
57094;BME280;42970;50.996;3.706;2023-02-11T09:43:42;77187.53;;;-146.65;100.00
57094;BME280;42970;50.996;3.706;2023-02-11T09:46:09;77203.66;;;-146.65;100.00
57094;BME280;42970;50.996;3.706;2023-02-11T09:48:39;77191.56;;;-146.65;100.00
57094;BME280;42970;50.996;3.706;2023-02-11T09:51:05;77197.59;;;-146.65;100.00
57094;BME280;42970;50.996;3.706;2023-02-11T09:53:38;77193.56;;;-146.65;100.00
57094;BME280;42970;50.996;3.706;2023-02-11T09:56:09;77199.63;;;-146.65;100.00
57094;BME280;42970;50.996;3.706;2023-02-11T09:58:37;77197.59;;;-146.65;100.00
57094;BME280;42970;50.996;3.706;2023-02-11T10:02:03;77189.53;;;-146.65;100.00
57094;BME280;42970;50.996;3.706;2023-02-11T10:04:01;77189.53;;;-146.65;100.00
57094;BME280;42970;50.996;3.706;2023-02-11T10:09:27;77187.53;;;-146.65;100.00
57094;BME280;42970;50.996;3.706;2023-02-11T10:12:10;77183.47;;;-146.65;100.00
57094;BME280;42970;50.996;3.706;2023-02-11T10:19:49;77171.38;;;-146.65;100.00
57094;BME280;42970;50.996;3.706;2023-02-11T10:22:21;77165.31;;;-146.65;100.00
57094;BME280;42970;50.996;3.706;2023-02-11T10:24:55;77165.31;;;-146.65;100.00
57094;BME280;42970;50.996;3.706;2023-02-11T10:27:29;77177.44;;;-146.65;100.00
57094;BME280;42970;50.996;3.706;2023-02-11T10:29:58;77167.34;;;-146.65;100.00
57094;BME280;42970;50.996;3.706;2023-02-11T10:32:29;77167.34;;;-146.65;100.00
57094;BME280;42970;50.996;3.706;2023-02-11T10:34:57;77165.31;;;-146.65;100.00
57094;BME280;42970;50.996;3.706;2023-02-11T10:37:25;77173.41;;;-146.65;100.00
57094;BME280;42970;50.996;3.706;2023-02-11T10:39:50;77173.41;;;-146.65;100.00
57094;BME280;42970;50.996;3.706;2023-02-11T10:42:15;77183.47;;;-146.65;100.00
57094;BME280;42970;50.996;3.706;2023-02-11T10:44:42;77171.38;;;-146.65;100.00
57094;BME280;42970;50.996;3.706;2023-02-11T10:47:18;77163.31;;;-146.65;100.00
57094;BME280;42970;50.996;3.706;2023-02-11T10:49:45;77153.22;;;-146.65;100.00
57094;BME280;42970;50.996;3.706;2023-02-11T10:52:21;77159.28;;;-146.65;100.00
57094;BME280;42970;50.996;3.706;2023-02-11T10:55:32;77151.19;;;-146.65;100.00
57094;BME280;42970;50.996;3.706;2023-02-11T10:57:34;77153.22;;;-146.65;100.00
57094;BME280;42970;50.996;3.706;2023-02-11T11:00:03;77153.22;;;-146.65;100.00
57094;BME280;42970;50.996;3.706;2023-02-11T11:02:29;77143.13;;;-146.65;100.00
57094;BME280;42970;50.996;3.706;2023-02-11T11:04:59;77143.13;;;-146.65;100.00
57094;BME280;42970;50.996;3.706;2023-02-11T11:07:26;77145.16;;;-146.65;100.00
57094;BME280;42970;50.996;3.706;2023-02-11T11:09:53;77133.03;;;-146.65;100.00
57094;BME280;42970;50.996;3.706;2023-02-11T11:12:36;77139.09;;;-146.65;100.00
57094;BME280;42970;50.996;3.706;2023-02-11T11:17:35;77122.94;;;-146.65;100.00
57094;BME280;42970;50.996;3.706;2023-02-11T11:20:23;77122.94;;;-146.65;100.00
57094;BME280;42970;50.996;3.706;2023-02-11T11:22:47;77118.91;;;-146.65;100.00
57094;BME280;42970;50.996;3.706;2023-02-11T11:25:23;77114.88;;;-146.65;100.00
57094;BME280;42970;50.996;3.706;2023-02-11T11:27:50;77118.91;;;-146.65;100.00
57094;BME280;42970;50.996;3.706;2023-02-11T11:30:17;77118.91;;;-146.65;100.00
57094;BME280;42970;50.996;3.706;2023-02-11T11:32:42;77114.88;;;-146.65;100.00
57094;BME280;42970;50.996;3.706;2023-02-11T11:35:19;77108.81;;;-146.65;100.00
57094;BME280;42970;50.996;3.706;2023-02-11T11:37:50;77110.84;;;-146.65;100.00
57094;BME280;42970;50.996;3.706;2023-02-11T11:40:21;77090.66;;;-146.65;100.00
57094;BME280;42970;50.996;3.706;2023-02-11T11:43:00;77094.69;;;-146.65;100.00
57094;BME280;42970;50.996;3.706;2023-02-11T11:45:26;77086.63;;;-146.65;100.00
57094;BME280;42970;50.996;3.706;2023-02-11T11:50:29;77080.56;;;-146.65;100.00
57094;BME280;42970;50.996;3.706;2023-02-11T11:58:29;77078.56;;;-146.65;100.00
57094;BME280;42970;50.996;3.706;2023-02-11T12:01:38;77076.53;;;-146.65;100.00
57094;BME280;42970;50.996;3.706;2023-02-11T12:11:19;77078.56;;;-146.65;100.00
57094;BME280;42970;50.996;3.706;2023-02-11T12:16:18;77072.50;;;-146.65;100.00
57094;BME280;42970;50.996;3.706;2023-02-11T12:26:44;77074.53;;;-146.65;100.00
57094;BME280;42970;50.996;3.706;2023-02-11T12:29:31;77070.50;;;-146.65;100.00
57094;BME280;42970;50.996;3.706;2023-02-11T12:32:16;77060.41;;;-146.65;100.00
57094;BME280;42970;50.996;3.706;2023-02-11T12:34:59;77054.34;;;-146.65;100.00
57094;BME280;42970;50.996;3.706;2023-02-11T12:50:12;77066.44;;;-146.65;100.00
57094;BME280;42970;50.996;3.706;2023-02-11T12:53:42;77072.50;;;-146.65;100.00
57094;BME280;42970;50.996;3.706;2023-02-11T12:55:34;77066.44;;;-146.65;100.00
57094;BME280;42970;50.996;3.706;2023-02-11T12:58:01;77064.44;;;-146.65;100.00
57094;BME280;42970;50.996;3.706;2023-02-11T13:00:30;77058.38;;;-146.65;100.00
57094;BME280;42970;50.996;3.706;2023-02-11T13:08:10;77048.28;;;-146.65;100.00
57094;BME280;42970;50.996;3.706;2023-02-11T13:10:42;77050.31;;;-146.65;100.00
57094;BME280;42970;50.996;3.706;2023-02-11T13:13:17;77044.25;;;-146.65;100.00
57094;BME280;42970;50.996;3.706;2023-02-11T13:15:51;77044.25;;;-146.65;100.00
57094;BME280;42970;50.996;3.706;2023-02-11T13:29:10;77042.25;;;-146.65;100.00
57094;BME280;42970;50.996;3.706;2023-02-11T13:32:06;77042.25;;;-146.65;100.00
57094;BME280;42970;50.996;3.706;2023-02-11T13:40:00;77046.28;;;-146.65;100.00
57094;BME280;42970;50.996;3.706;2023-02-11T13:42:27;77058.38;;;-146.65;100.00
57094;BME280;42970;50.996;3.706;2023-02-11T13:44:53;77044.25;;;-146.65;100.00
57094;BME280;42970;50.996;3.706;2023-02-11T13:47:27;77042.25;;;-146.65;100.00
57094;BME280;42970;50.996;3.706;2023-02-11T13:49:54;77040.22;;;-146.65;100.00
57094;BME280;42970;50.996;3.706;2023-02-11T13:52:24;77036.19;;;-146.65;100.00
57094;BME280;42970;50.996;3.706;2023-02-11T13:54:51;77044.25;;;-146.65;100.00
57094;BME280;42970;50.996;3.706;2023-02-11T13:59:43;77042.25;;;-146.65;100.00
57094;BME280;42970;50.996;3.706;2023-02-11T14:05:00;77030.13;;;-146.65;100.00
57094;BME280;42970;50.996;3.706;2023-02-11T14:10:50;77034.16;;;-146.65;100.00
57094;BME280;42970;50.996;3.706;2023-02-11T14:15:44;77040.22;;;-146.65;100.00
57094;BME280;42970;50.996;3.706;2023-02-11T14:20:58;77022.06;;;-146.65;100.00
57094;BME280;42970;50.996;3.706;2023-02-11T14:23:30;77022.06;;;-146.65;100.00
57094;BME280;42970;50.996;3.706;2023-02-11T14:26:02;77020.03;;;-146.65;100.00
57094;BME280;42970;50.996;3.706;2023-02-11T14:28:30;77022.06;;;-146.65;100.00
57094;BME280;42970;50.996;3.706;2023-02-11T14:31:06;77018.03;;;-146.65;100.00